Wheaton, Illinois
Current Conditions -  °F | °C
As of 3:52 PM on Monday 20 Oct 2014 (Local Time) from KDPA Reporting Station
Scattered Clouds Scattered Clouds  
Wind Chill: 64°   Ceiling: Unl
Heat Index: 64°   Visibility: 10mi
Dew Point: 43°   Wind: 21mph
Humidity: 46%   Direction: 330°NNW
Pressure: 29.88"   Gusts: 25mph
Location:  41.87°N, 88.11°W
Report Text: KDPA 202052Z 33018G22KT 10SM SCT047 18/06 A2988 RMK AO2 SLP117 T01780061 53012
Loading
Personal Weather Stations






























Interactive Weather Map
Tropical Storm Tracking
New forecast layout! Learn more

10-Day Weather Forecast

Advertisements
Track Severe Weather on mobile